createdAt,value
2022-12-11T00:00:29.630Z,98977.25
2022-12-11T00:02:57.302Z,98986.75
2022-12-11T00:05:24.693Z,98983.50
2022-12-11T00:07:52.111Z,98992.75
2022-12-11T00:10:19.588Z,98998.06
2022-12-11T00:12:46.981Z,98999.91
2022-12-11T00:15:14.583Z,98998.97
2022-12-11T00:17:41.895Z,99001.56
2022-12-11T00:20:09.842Z,98999.75
2022-12-11T00:22:37.287Z,99002.41
2022-12-11T00:25:04.970Z,99011.88
2022-12-11T00:27:32.301Z,99006.72
2022-12-11T00:30:00.036Z,99008.53
2022-12-11T00:32:28.506Z,99008.53
2022-12-11T00:34:56.092Z,99008.53
2022-12-11T00:37:23.679Z,99017.03
2022-12-11T00:39:51.060Z,99017.19
2022-12-11T00:42:18.377Z,99018.13
2022-12-11T00:44:45.769Z,99020.72
2022-12-11T00:47:13.043Z,99028.38
2022-12-11T00:49:42.887Z,99027.81
2022-12-11T00:52:13.881Z,99027.66
2022-12-11T00:54:41.281Z,99034.50
2022-12-11T00:57:08.629Z,99027.66
2022-12-11T00:59:36.060Z,99031.78
2022-12-11T01:02:03.563Z,99039.34
2022-12-11T01:04:30.914Z,99036.78
2022-12-11T01:06:58.275Z,99033.38
2022-12-11T01:09:44.149Z,99039.19
2022-12-11T01:12:11.602Z,99046.03
2022-12-11T01:14:38.931Z,99037.22
2022-12-11T01:17:06.506Z,99044.19
2022-12-11T01:19:33.832Z,99041.63
2022-12-11T01:22:01.150Z,99038.91
2022-12-11T01:24:28.686Z,99043.91
2022-12-11T01:26:56.099Z,99047.41
2022-12-11T01:29:23.400Z,99037.97
2022-12-11T01:31:50.812Z,99043.91
2022-12-11T01:34:18.047Z,99044.72
2022-12-11T01:36:45.372Z,99052.41
2022-12-11T01:39:12.699Z,99045.44
2022-12-11T01:41:40.187Z,99047.06
2022-12-11T01:44:28.903Z,99056.50
2022-12-11T01:46:56.336Z,99052.25
2022-12-11T01:49:27.302Z,99055.59
2022-12-11T01:52:03.303Z,99072.59
2022-12-11T01:54:30.796Z,99078.66
2022-12-11T01:57:03.312Z,99074.28
2022-12-11T01:59:35.203Z,99068.09
2022-12-11T02:02:17.858Z,99072.59
2022-12-11T02:04:47.115Z,99059.06
2022-12-11T02:07:14.959Z,99065.22
2022-12-11T02:09:45.326Z,99080.59
2022-12-11T02:12:31.718Z,99078.75
2022-12-11T02:15:23.944Z,99080.59
2022-12-11T02:17:58.857Z,99081.38
2022-12-11T02:20:29.539Z,99088.69
2022-12-11T02:23:14.983Z,99085.44
2022-12-11T02:26:02.133Z,99081.16
2022-12-11T02:28:43.501Z,99079.28
2022-12-11T02:31:28.891Z,99072.28
2022-12-11T02:33:56.289Z,99083.22
2022-12-11T02:36:27.872Z,99081.09
2022-12-11T02:38:58.943Z,99086.66
2022-12-11T02:41:28.786Z,99080.19
2022-12-11T02:43:57.783Z,99091.72
2022-12-11T02:46:26.243Z,99085.38
2022-12-11T02:48:55.859Z,99072.00
2022-12-11T02:51:33.405Z,99070.16
2022-12-11T02:54:02.320Z,99061.38
2022-12-11T02:56:45.080Z,99066.69
2022-12-11T02:59:26.950Z,99072.16
2022-12-11T03:01:54.514Z,99072.00
2022-12-11T03:04:24.988Z,99073.06
2022-12-11T03:06:56.482Z,99066.22
2022-12-11T03:09:23.831Z,99067.97
2022-12-11T03:11:52.488Z,99068.19
2022-12-11T03:14:20.174Z,99062.41
2022-12-11T03:17:00.518Z,99061.53
2022-12-11T03:19:36.723Z,99061.75
2022-12-11T03:22:06.884Z,99067.06
2022-12-11T03:24:46.258Z,99062.97
2022-12-11T03:27:25.277Z,99081.09
2022-12-11T03:30:15.256Z,99089.59
2022-12-11T03:32:53.397Z,99086.72
2022-12-11T03:35:32.956Z,99083.38
2022-12-11T03:38:08.676Z,99091.41
2022-12-11T03:40:38.750Z,99104.94
2022-12-11T03:43:07.214Z,99090.50
2022-12-11T03:45:35.610Z,99099.16
2022-12-11T03:48:03.378Z,99096.13
2022-12-11T03:50:34.055Z,99095.19
2022-12-11T03:53:03.038Z,99094.38
2022-12-11T03:55:32.741Z,99098.84
2022-12-11T03:58:00.150Z,99102.28
2022-12-11T04:00:27.951Z,99113.75
2022-12-11T04:03:14.247Z,99119.34
2022-12-11T04:05:51.297Z,99123.16
2022-12-11T04:08:20.894Z,99124.22
2022-12-11T04:11:09.279Z,99133.03
2022-12-11T04:13:37.176Z,99131.19
2022-12-11T04:16:04.644Z,99125.22
2022-12-11T04:18:51.008Z,99130.44
2022-12-11T04:21:39.692Z,99132.19
2022-12-11T04:24:17.071Z,99133.03
2022-12-11T04:26:46.458Z,99140.28
2022-12-11T04:29:15.399Z,99133.50
2022-12-11T04:31:42.845Z,99135.69
2022-12-11T04:34:10.356Z,99137.09
2022-12-11T04:36:37.822Z,99132.56
2022-12-11T04:39:06.189Z,99133.75
2022-12-11T04:41:33.848Z,99128.59
2022-12-11T04:44:01.436Z,99129.13
2022-12-11T04:46:28.874Z,99125.22
2022-12-11T04:49:00.166Z,99122.16
2022-12-11T04:51:28.528Z,99123.00
2022-12-11T04:53:55.781Z,99128.13
2022-12-11T04:56:23.168Z,99134.97
2022-12-11T04:58:50.507Z,99135.88
2022-12-11T05:01:20.445Z,99137.25
2022-12-11T05:03:48.621Z,99138.59
2022-12-11T05:06:16.108Z,99137.03
2022-12-11T05:08:43.949Z,99133.97
2022-12-11T05:11:14.042Z,99122.69
2022-12-11T05:13:42.297Z,99126.50
2022-12-11T05:16:11.974Z,99111.94
2022-12-11T05:18:39.736Z,99119.06
2022-12-11T05:21:09.395Z,99119.81
2022-12-11T05:23:37.968Z,99125.88
2022-12-11T05:26:08.335Z,99132.38
2022-12-11T05:28:37.582Z,99123.69
2022-12-11T05:31:14.538Z,99131.81
2022-12-11T05:33:42.261Z,99121.91
2022-12-11T05:36:13.699Z,99135.16
2022-12-11T05:38:41.127Z,99130.16
2022-12-11T05:41:09.043Z,99126.66
2022-12-11T05:43:37.085Z,99121.50
2022-12-11T05:46:13.092Z,99117.13
2022-12-11T05:48:41.879Z,99117.41
2022-12-11T05:51:10.405Z,99115.47
2022-12-11T05:53:38.742Z,99123.97
2022-12-11T05:56:12.120Z,99124.09
2022-12-11T05:58:40.295Z,99109.94
2022-12-11T06:01:16.403Z,99106.19
2022-12-11T06:03:43.836Z,99095.44
2022-12-11T06:06:11.511Z,99087.88
2022-12-11T06:08:38.982Z,99078.53
2022-12-11T06:11:07.023Z,99100.28
2022-12-11T06:13:35.389Z,99096.44
2022-12-11T06:16:05.428Z,99107.69
2022-12-11T06:18:38.867Z,99099.00
2022-12-11T06:21:27.226Z,99096.69
2022-12-11T06:23:56.705Z,99093.22
2022-12-11T06:26:24.357Z,99089.59
2022-12-11T06:28:53.382Z,99097.97
2022-12-11T06:31:21.330Z,99091.28
2022-12-11T06:33:49.139Z,99093.59
2022-12-11T06:36:19.027Z,99092.81
2022-12-11T06:38:47.751Z,99094.50
2022-12-11T06:41:15.479Z,99104.53
2022-12-11T06:43:43.351Z,99118.22
2022-12-11T06:46:16.180Z,99121.47
2022-12-11T06:48:44.043Z,99126.28
2022-12-11T06:51:12.578Z,99127.81
2022-12-11T06:53:40.700Z,99124.88
2022-12-11T06:56:12.576Z,99128.06
2022-12-11T06:58:40.266Z,99131.81
2022-12-11T07:01:18.908Z,99133.34
2022-12-11T07:03:46.523Z,99126.78
2022-12-11T07:06:13.994Z,99141.53
2022-12-11T07:08:41.458Z,99147.66
2022-12-11T07:11:12.931Z,99150.75
2022-12-11T07:13:42.184Z,99141.69
2022-12-11T07:16:11.391Z,99143.91
2022-12-11T07:18:40.497Z,99140.81
2022-12-11T07:21:09.743Z,99131.94
2022-12-11T07:23:37.777Z,99137.09
2022-12-11T07:26:07.595Z,99136.91
2022-12-11T07:28:35.222Z,99137.72
2022-12-11T07:31:11.021Z,99146.88
2022-12-11T07:33:38.964Z,99144.19
2022-12-11T07:36:09.481Z,99149.69
2022-12-11T07:38:37.277Z,99150.84
2022-12-11T07:41:06.433Z,99155.34
2022-12-11T07:43:35.309Z,99157.03
2022-12-11T07:46:08.996Z,99160.75
2022-12-11T07:48:39.048Z,99160.88
2022-12-11T07:51:11.518Z,99177.00
2022-12-11T07:53:39.040Z,99188.72
2022-12-11T07:56:06.941Z,99194.47
2022-12-11T07:58:34.984Z,99199.50
2022-12-11T08:01:02.460Z,99204.78
2022-12-11T08:03:29.984Z,99212.38
2022-12-11T08:05:57.253Z,99212.44
2022-12-11T08:08:24.710Z,99209.91
2022-12-11T08:10:51.943Z,99217.28
2022-12-11T08:13:19.055Z,99215.78
2022-12-11T08:15:46.148Z,99224.28
2022-12-11T08:18:14.098Z,99226.78
2022-12-11T08:20:41.452Z,99229.19
2022-12-11T08:23:08.550Z,99243.66
2022-12-11T08:25:35.981Z,99246.22
2022-12-11T08:28:05.336Z,99251.97
2022-12-11T08:30:32.628Z,99263.50
2022-12-11T08:32:59.826Z,99260.31
2022-12-11T08:35:27.031Z,99272.25
2022-12-11T08:37:54.152Z,99269.75
2022-12-11T08:40:21.333Z,99279.97
2022-12-11T08:42:48.446Z,99273.94
2022-12-11T08:45:16.748Z,99294.41
2022-12-11T08:47:43.875Z,99282.31
2022-12-11T08:50:10.987Z,99291.59
2022-12-11T08:52:38.223Z,99298.31
2022-12-11T08:55:05.566Z,99292.00
2022-12-11T08:57:32.641Z,99299.66
2022-12-11T08:59:59.947Z,99309.66
2022-12-11T09:02:27.070Z,99310.53
2022-12-11T09:04:54.268Z,99314.88
2022-12-11T09:07:21.537Z,99318.03
2022-12-11T09:09:48.838Z,99325.63
2022-12-11T09:12:16.091Z,99323.25
2022-12-11T09:14:43.307Z,99320.63
2022-12-11T09:17:10.465Z,99326.78
2022-12-11T09:19:37.518Z,99326.38
2022-12-11T09:22:04.679Z,99329.63
2022-12-11T09:24:31.863Z,99337.03
2022-12-11T09:26:59.017Z,99344.56
2022-12-11T09:29:26.355Z,99332.84
2022-12-11T09:31:53.653Z,99344.94
2022-12-11T09:34:24.802Z,99350.13
2022-12-11T09:36:56.744Z,99346.72
2022-12-11T09:39:23.834Z,99352.16
2022-12-11T09:42:15.659Z,99346.72
2022-12-11T09:44:47.260Z,99348.41
2022-12-11T09:47:26.115Z,99355.38
2022-12-11T09:50:15.689Z,99351.00
2022-12-11T09:52:42.784Z,99350.84
2022-12-11T09:55:24.360Z,99351.66
2022-12-11T09:57:57.411Z,99352.91
2022-12-11T10:00:27.416Z,99357.56
2022-12-11T10:03:08.849Z,99361.78
2022-12-11T10:05:57.323Z,99354.97
2022-12-11T10:08:47.862Z,99348.13
2022-12-11T10:11:27.483Z,99336.34
2022-12-11T10:13:57.901Z,99336.94
2022-12-11T10:16:35.688Z,99334.44
2022-12-11T10:19:03.781Z,99342.78
2022-12-11T10:21:45.603Z,99333.44
2022-12-11T10:24:40.792Z,99336.06
2022-12-11T10:27:17.084Z,99343.13
2022-12-11T10:29:44.846Z,99348.06
2022-12-11T10:36:45.474Z,99356.34
2022-12-11T10:39:18.759Z,99349.63
2022-12-11T10:41:47.827Z,99356.34
2022-12-11T10:44:15.111Z,99352.19
2022-12-11T10:46:42.800Z,99349.50
2022-12-11T10:49:40.390Z,99347.72
2022-12-11T10:52:13.587Z,99344.47
2022-12-11T10:55:04.434Z,99354.44
2022-12-11T10:57:40.796Z,99358.28
2022-12-11T11:00:38.814Z,99354.06
2022-12-11T11:03:45.276Z,99355.72
2022-12-11T11:06:22.715Z,99353.22
2022-12-11T11:09:08.151Z,99348.06
2022-12-11T11:12:10.908Z,99342.09
2022-12-11T11:14:47.756Z,99353.47
2022-12-11T11:17:18.307Z,99353.47
2022-12-11T11:19:52.484Z,99353.47
2022-12-11T11:22:24.146Z,99349.88
2022-12-11T11:25:28.106Z,99355.50
2022-12-11T11:28:26.857Z,99360.50
2022-12-11T11:30:57.387Z,99359.81
2022-12-11T11:33:25.502Z,99355.38
2022-12-11T11:36:07.300Z,99352.16
2022-12-11T11:38:54.478Z,99355.72
2022-12-11T11:41:23.439Z,99357.28
2022-12-11T11:44:13.013Z,99357.50
2022-12-11T11:46:58.292Z,99361.78
2022-12-11T11:50:34.989Z,99355.97
2022-12-11T11:53:21.980Z,99357.88
2022-12-11T11:56:37.646Z,99361.34
2022-12-11T11:59:05.153Z,99363.03
2022-12-11T12:01:33.202Z,99365.59
2022-12-11T12:04:05.777Z,99366.59
2022-12-11T12:06:52.249Z,99368.41
2022-12-11T12:09:50.126Z,99373.44
2022-12-11T12:12:27.486Z,99369.63
2022-12-11T12:15:18.459Z,99374.88
2022-12-11T12:17:52.006Z,99372.94
2022-12-11T12:20:37.829Z,99374.53
2022-12-11T12:23:07.980Z,99376.09
2022-12-11T12:25:38.900Z,99378.53
2022-12-11T12:28:18.335Z,99383.25
2022-12-11T12:30:51.100Z,99389.97
2022-12-11T12:33:41.634Z,99391.41
2022-12-11T12:36:12.211Z,99395.34
2022-12-11T12:38:51.004Z,99401.06
2022-12-11T12:41:42.694Z,99406.19
2022-12-11T12:44:18.364Z,99409.56
2022-12-11T12:46:47.706Z,99419.28
2022-12-11T12:49:38.409Z,99423.09
2022-12-11T12:52:30.986Z,99428.38
2022-12-11T12:55:18.232Z,99433.81
2022-12-11T12:58:09.073Z,99433.22
2022-12-11T13:00:38.006Z,99437.31
2022-12-11T13:03:11.855Z,99439.41
2022-12-11T13:05:54.292Z,99436.34
2022-12-11T13:08:26.880Z,99434.84
2022-12-11T13:11:08.935Z,99434.75
2022-12-11T13:18:36.729Z,99447.03
2022-12-11T13:21:29.255Z,99457.13
2022-12-11T13:24:37.008Z,99452.00
2022-12-11T13:27:22.648Z,99456.97
2022-12-11T13:29:50.260Z,99456.09
2022-12-11T13:32:17.415Z,99457.53
2022-12-11T13:34:50.546Z,99460.41
2022-12-11T13:37:44.066Z,99466.47
2022-12-11T13:40:14.391Z,99462.25
2022-12-11T13:43:01.975Z,99473.66
2022-12-11T13:45:32.978Z,99483.34
2022-12-11T13:48:00.259Z,99478.38
2022-12-11T13:50:34.785Z,99484.94
2022-12-11T13:53:02.677Z,99476.59
2022-12-11T13:55:31.430Z,99484.34
2022-12-11T13:57:58.657Z,99482.78
2022-12-11T14:00:27.494Z,99485.31
2022-12-11T14:47:32.531Z,99507.81
2022-12-11T14:50:26.793Z,99507.75
2022-12-11T14:53:01.140Z,99510.84
2022-12-11T14:55:35.094Z,99509.50
2022-12-11T14:58:21.095Z,99517.84
2022-12-11T15:01:24.855Z,99519.13
2022-12-11T15:04:14.752Z,99528.69
2022-12-11T15:06:48.040Z,99523.56
2022-12-11T15:09:25.725Z,99530.34
2022-12-11T15:11:55.227Z,99535.50
2022-12-11T15:14:25.606Z,99538.78
2022-12-11T15:16:57.210Z,99534.94
2022-12-11T15:19:30.693Z,99541.63
2022-12-11T15:22:06.625Z,99548.63
2022-12-11T15:24:34.092Z,99545.53
2022-12-11T15:27:01.695Z,99547.25
2022-12-11T15:29:35.205Z,99546.44
2022-12-11T15:32:04.280Z,99540.56
2022-12-11T15:34:42.503Z,99538.59
2022-12-11T15:37:24.094Z,99545.34
2022-12-11T15:39:53.463Z,99550.34
2022-12-11T15:42:27.183Z,99535.84
2022-12-11T15:44:55.656Z,99541.13
2022-12-11T15:47:32.675Z,99553.22
2022-12-11T15:50:03.148Z,99555.97
2022-12-11T15:52:31.037Z,99550.13
2022-12-11T15:54:58.639Z,99555.88
2022-12-11T15:57:26.430Z,99562.75
2022-12-11T15:59:55.303Z,99563.00
2022-12-11T16:02:24.509Z,99576.38
2022-12-11T16:04:52.471Z,99566.22
2022-12-11T16:07:23.216Z,99586.75
2022-12-11T16:09:51.706Z,99578.22
2022-12-11T16:12:20.441Z,99588.53
2022-12-11T16:14:48.319Z,99593.03
2022-12-11T16:17:16.835Z,99594.78
2022-12-11T16:19:45.009Z,99594.75
2022-12-11T16:22:14.411Z,99600.75
2022-12-11T16:24:42.547Z,99601.84
2022-12-11T16:27:10.190Z,99604.59
2022-12-11T16:29:41.136Z,99607.84
2022-12-11T16:32:09.115Z,99609.38
2022-12-11T16:34:38.014Z,99614.31
2022-12-11T16:37:07.636Z,99614.38
2022-12-11T16:39:38.286Z,99613.66
2022-12-11T16:42:07.572Z,99622.09
2022-12-11T16:44:39.517Z,99615.44
2022-12-11T16:47:10.401Z,99631.59
2022-12-11T16:49:38.026Z,99614.59
2022-12-11T16:52:05.634Z,99635.13
2022-12-11T16:54:33.322Z,99629.25
2022-12-11T16:57:02.956Z,99621.66
2022-12-11T17:13:24.232Z,99635.75
2022-12-11T17:15:51.925Z,99623.75
2022-12-11T17:18:19.342Z,99627.19
2022-12-11T17:20:47.377Z,99628.88
2022-12-11T17:23:15.041Z,99625.28
2022-12-11T17:25:44.332Z,99628.66
2022-12-11T17:28:13.827Z,99621.72
2022-12-11T17:30:45.047Z,99631.88
2022-12-11T17:33:12.586Z,99642.69
2022-12-11T17:35:40.004Z,99636.88
2022-12-11T17:38:07.641Z,99636.72
2022-12-11T17:40:35.320Z,99643.56
2022-12-11T17:43:06.348Z,99646.81
2022-12-11T17:45:33.786Z,99639.25
2022-12-11T17:48:01.127Z,99644.41
2022-12-11T17:50:28.880Z,99643.47
2022-12-11T17:52:57.112Z,99636.66
2022-12-11T17:55:24.811Z,99644.91
2022-12-11T17:57:52.300Z,99651.91
2022-12-11T18:00:19.908Z,99651.13
2022-12-11T18:02:47.393Z,99645.00
2022-12-11T18:05:14.865Z,99652.63
2022-12-11T18:07:45.182Z,99657.88
2022-12-11T18:10:16.366Z,99655.19
2022-12-11T18:12:43.939Z,99653.44
2022-12-11T18:15:11.816Z,99650.06
2022-12-11T18:17:39.448Z,99648.34
2022-12-11T18:20:08.643Z,99658.50
2022-12-11T18:22:37.991Z,99653.34
2022-12-11T18:25:09.772Z,99657.63
2022-12-11T18:27:39.149Z,99650.88
2022-12-11T18:30:07.830Z,99660.22
2022-12-11T18:32:35.529Z,99656.19
2022-12-11T18:35:04.633Z,99661.38
2022-12-11T18:37:32.083Z,99662.38
2022-12-11T18:40:03.072Z,99658.97
2022-12-11T18:42:33.378Z,99667.44
2022-12-11T18:45:01.800Z,99679.09
2022-12-11T18:47:29.180Z,99665.59
2022-12-11T18:49:57.441Z,99684.22
2022-12-11T18:52:26.730Z,99683.47
2022-12-11T18:54:54.316Z,99680.84
2022-12-11T18:57:22.648Z,99685.13
2022-12-11T18:59:54.165Z,99682.53
2022-12-11T19:02:22.963Z,99687.59
2022-12-11T19:04:50.465Z,99699.66
2022-12-11T19:07:17.835Z,99681.19
2022-12-11T19:09:48.271Z,99688.03
2022-12-11T19:12:16.347Z,99703.44
2022-12-11T19:14:46.026Z,99701.88
2022-12-11T19:17:13.512Z,99706.22
2022-12-11T19:19:43.314Z,99703.75
2022-12-11T19:22:15.153Z,99705.56
2022-12-11T19:24:53.504Z,99704.75
2022-12-11T19:27:21.047Z,99705.72
2022-12-11T19:29:48.360Z,99715.03
2022-12-11T19:32:15.631Z,99716.53
2022-12-11T19:34:43.166Z,99701.41
2022-12-11T19:37:11.024Z,99704.03
2022-12-11T19:39:40.172Z,99716.81
2022-12-11T19:42:07.517Z,99715.06
2022-12-11T19:44:34.822Z,99718.50
2022-12-11T19:47:04.544Z,99718.69
2022-12-11T19:49:31.993Z,99721.50
2022-12-11T19:51:59.527Z,99723.78
2022-12-11T19:54:27.174Z,99729.81
2022-12-11T19:56:55.715Z,99733.44
2022-12-11T19:59:26.477Z,99740.28
2022-12-11T20:01:54.421Z,99740.31
2022-12-11T20:04:22.159Z,99748.94
2022-12-11T20:06:49.941Z,99745.56
2022-12-11T20:09:18.322Z,99748.06
2022-12-11T20:11:47.641Z,99744.00
2022-12-11T20:14:26.100Z,99755.97
2022-12-11T20:17:13.802Z,99745.00
2022-12-11T20:19:42.701Z,99761.13
2022-12-11T20:22:11.010Z,99751.00
2022-12-11T20:24:39.022Z,99762.94
2022-12-11T20:27:07.070Z,99761.38
2022-12-11T20:29:34.999Z,99760.59
2022-12-11T20:32:03.108Z,99765.72
2022-12-11T20:34:31.353Z,99768.28
2022-12-11T20:37:00.549Z,99763.22
2022-12-11T20:39:29.477Z,99768.34
2022-12-11T20:41:57.272Z,99779.47
2022-12-11T20:44:25.273Z,99783.44
2022-12-11T20:46:53.054Z,99790.41
2022-12-11T20:49:20.982Z,99779.50
2022-12-11T20:51:48.664Z,99775.25
2022-12-11T20:54:16.317Z,99767.72
2022-12-11T20:56:44.091Z,99766.84
2022-12-11T20:59:12.146Z,99783.22
2022-12-11T21:01:40.540Z,99792.53
2022-12-11T21:04:08.586Z,99790.91
2022-12-11T21:06:38.966Z,99802.84
2022-12-11T21:09:19.686Z,99801.06
2022-12-11T21:11:47.440Z,99797.75
2022-12-11T21:14:16.183Z,99800.31
2022-12-11T21:16:43.872Z,99796.94
2022-12-11T21:19:16.501Z,99804.34
2022-12-11T21:21:45.494Z,99801.88
2022-12-11T21:24:18.832Z,99797.66
2022-12-11T21:26:46.852Z,99802.69
2022-12-11T21:29:14.756Z,99809.28
2022-12-11T21:31:42.729Z,99813.44
2022-12-11T21:34:10.049Z,99821.38
2022-12-11T21:36:37.461Z,99827.44
2022-12-11T21:39:05.195Z,99818.13
2022-12-11T21:41:32.750Z,99827.41
2022-12-11T21:45:25.978Z,99833.25
2022-12-11T21:46:47.563Z,99826.47
2022-12-11T21:49:15.870Z,99828.19
2022-12-11T21:51:47.065Z,99829.94
2022-12-11T21:54:17.365Z,99834.97
2022-12-11T21:56:45.108Z,99835.00
2022-12-11T21:59:12.404Z,99839.25
2022-12-11T22:01:42.088Z,99833.25
2022-12-11T22:04:10.648Z,99849.34
2022-12-11T22:06:38.292Z,99844.28
2022-12-11T22:09:06.019Z,99850.38
2022-12-11T22:11:34.294Z,99849.69
2022-12-11T22:14:02.540Z,99857.50
2022-12-11T22:16:30.467Z,99855.81
2022-12-11T22:18:57.754Z,99849.97
2022-12-11T22:21:24.962Z,99854.97
2022-12-11T22:23:52.104Z,99864.50
2022-12-11T22:26:21.208Z,99863.81
2022-12-11T22:28:50.163Z,99861.38
2022-12-11T22:31:20.756Z,99861.47
2022-12-11T22:33:50.072Z,99861.56
2022-12-11T22:36:20.139Z,99859.00
2022-12-11T22:38:47.579Z,99867.56
2022-12-11T22:41:20.550Z,99864.09
2022-12-11T22:43:49.610Z,99871.94
2022-12-11T22:46:17.985Z,99865.25
2022-12-11T22:48:45.179Z,99865.38
2022-12-11T22:51:12.316Z,99870.63
2022-12-11T22:53:39.538Z,99871.34
2022-12-11T22:56:07.174Z,99867.03
2022-12-11T22:58:34.826Z,99867.22
2022-12-11T23:01:02.722Z,99863.97
2022-12-11T23:03:29.828Z,99871.69
2022-12-11T23:06:00.766Z,99866.69
2022-12-11T23:08:31.123Z,99865.03
2022-12-11T23:10:58.407Z,99869.25
2022-12-11T23:13:25.598Z,99876.94
2022-12-11T23:15:52.639Z,99864.16
2022-12-11T23:18:19.745Z,99862.69
2022-12-11T23:20:48.402Z,99861.81
2022-12-11T23:23:15.515Z,99863.47
2022-12-11T23:25:42.918Z,99862.66
2022-12-11T23:28:10.381Z,99862.78
2022-12-11T23:30:38.124Z,99866.19
2022-12-11T23:33:06.644Z,99861.19
2022-12-11T23:35:34.161Z,99856.16
2022-12-11T23:38:01.309Z,99853.66
2022-12-11T23:40:28.530Z,99863.09
2022-12-11T23:42:55.667Z,99859.72
2022-12-11T23:45:22.771Z,99854.69
2022-12-11T23:47:49.944Z,99854.69
2022-12-11T23:50:17.379Z,99842.81
2022-12-11T23:52:44.551Z,99850.31
2022-12-11T23:55:12.098Z,99849.66
2022-12-11T23:57:39.711Z,99847.16
